DEKBS EDDN-EDQH
Flight info
| Callsign | DEKBS |
|---|---|
| Flight time | 0h 6m |
| Altitude | |
| Route | |
| Aircraft | C172 |
Departure
| Time | 2026-05-01 15:06 |
|---|---|
| Airport | Nuremberg Airport (EDDN) |
Arrival
| Time | 2026-05-01 15:12 |
|---|---|
| Airport | Herzogenaurach Airfield (EDQH) |
| Time | Latitude | Longitude | Altitude | Speed | Heading |
|---|---|---|---|---|---|
| 2026-05-01 15:06 | 49.50291 | 11.10172 | 1458 ft | 102 kts | 342° |
| 2026-05-01 15:06 | 49.50952 | 11.09702 | 1603 ft | 105 kts | 315° |
| 2026-05-01 15:06 | 49.51038 | 11.08653 | 1749 ft | 109 kts | 251° |
| 2026-05-01 15:06 | 49.50808 | 11.07556 | 1918 ft | 106 kts | 252° |
| 2026-05-01 15:07 | 49.50615 | 11.06465 | 2041 ft | 110 kts | 257° |
| 2026-05-01 15:07 | 49.50677 | 11.05338 | 2246 ft | 103 kts | 304° |
| 2026-05-01 15:07 | 49.51050 | 11.04308 | 2316 ft | 111 kts | 306° |
| 2026-05-01 15:07 | 49.51472 | 11.03365 | 2562 ft | 99 kts | 307° |
| 2026-05-01 15:08 | 49.51909 | 11.02414 | 2578 ft | 115 kts | 310° |
| 2026-05-01 15:08 | 49.52408 | 11.01448 | 2711 ft | 115 kts | 307° |
| 2026-05-01 15:08 | 49.52903 | 11.00445 | 2810 ft | 118 kts | 312° |
| 2026-05-01 15:08 | 49.53511 | 10.99605 | 2862 ft | 116 kts | 336° |
| 2026-05-01 15:09 | 49.54232 | 10.99268 | 3000 ft | 114 kts | 345° |
| 2026-05-01 15:09 | 49.54984 | 10.98843 | 2631 ft | 149 kts | 346° |
| 2026-05-01 15:09 | 49.55980 | 10.98236 | 2328 ft | 144 kts | 339° |
| 2026-05-01 15:09 | 49.56839 | 10.97557 | 2302 ft | 136 kts | 326° |
| 2026-05-01 15:10 | 49.57474 | 10.96522 | 2321 ft | 131 kts | 307° |
| 2026-05-01 15:10 | 49.58118 | 10.94109 | 2510 ft | 126 kts | 279° |
| 2026-05-01 15:10 | 49.58319 | 10.92757 | 2450 ft | 133 kts | 281° |
| 2026-05-01 15:11 | 49.58538 | 10.91372 | 1286 ft | 189 kts | 285° |
| 2026-05-01 15:11 | 49.58510 | 10.89197 | 1629 ft | 79 kts | 259° |
| 2026-05-01 15:11 | 49.58360 | 10.88359 | 1138 ft | 92 kts | 253° |
| 2026-05-01 15:12 | 49.58235 | 10.87573 | 1060 ft | 53 kts | 252° |
| 2026-05-01 15:12 | 49.58181 | 10.87303 | 1062 ft | 5 kts | 161° |
| 2026-05-01 15:12 | 49.58228 | 10.87548 | 1060 ft | 50 kts | 75° |
| 2026-05-01 15:13 | 49.58652 | 10.89755 | 1453 ft | 84 kts | 64° |
| 2026-05-01 15:14 | 49.59187 | 10.91452 | 1531 ft | 94 kts | 65° |
| 2026-05-01 15:14 | 49.59364 | 10.92447 | 1612 ft | 100 kts | 91° |
| 2026-05-01 15:14 | 49.59030 | 10.94476 | 1863 ft | 100 kts | 111° |
| 2026-05-01 15:15 | 49.58124 | 10.95746 | 2286 ft | 89 kts | 156° |
| 2026-05-01 15:15 | 49.57205 | 10.96599 | 2709 ft | 83 kts | 122° |
| 2026-05-01 15:16 | 49.56670 | 10.97982 | 3087 ft | 83 kts | 108° |
| 2026-05-01 15:16 | 49.56113 | 10.99454 | 3453 ft | 81 kts | 124° |
| 2026-05-01 15:17 | 49.55460 | 11.00748 | 3857 ft | 77 kts | 129° |
| 2026-05-01 15:18 | 49.53903 | 11.01732 | 4271 ft | 91 kts | 189° |
| 2026-05-01 15:18 | 49.53310 | 11.01514 | 4439 ft | 90 kts | 173° |